»·PEaware :: N64463 KPRB-KVNY

N64463 :: KPRB-KVNY

FLIGHT INFORMATION

Flight Status: Arrived
Operator: Privately registered:
United States
More flights under this callsign
Pilot: Anders Y. (1125)
Aircraft: BELLANCA AIRCRAFT VIKING
(BL17)
More flights by this aircraft type
Origin: KPRB Paso Robles Mun
United States
Destination: KVNY Van Nuys
United States
More flights between these airports :: More routes between these airports
Route: +PRACTICE APPROACHES AT VNY
File this flight plan on PilotEdge
Remarks: BALLANCA
Altitude:
(Current/Filed)
15,500ft
Speed:
(Current/Filed)
150kts
Departed: 17-Jun-13 04:49 PM
Arrived: 17-Jun-13 05:42 PM
Distance/Time
Traveled:
137nm/0:53
Distance/Time
To Go:
Arrived

Flight Plot

Page will automatically refresh every two minutes.


Map Options




Map Legend


Flown Route
Filed Route
Departure Airport
Arrival Airport
Navaid (VOR, NDB)
Fix

Horizontal Profiles

Position Reports

Time Latitude Longitude Heading Altitude Ground
Speed
17-Jun-13 16:49 35.610719 -120.440294 133 6597ft 131kts
17-Jun-13 16:50 35.587196 -120.406527 134 7397ft 129kts
17-Jun-13 16:51 35.564248 -120.373728 134 8196ft 123kts
17-Jun-13 16:52 35.542643 -120.342927 134 9081ft 115kts
17-Jun-13 16:53 35.522566 -120.314359 133 9961ft 105kts
17-Jun-13 16:54 35.504536 -120.288618 133 10830ft 93kts
17-Jun-13 16:55 35.489062 -120.266825 128 11663ft 77kts
17-Jun-13 16:56 35.475768 -120.247902 124 12289ft 76kts
17-Jun-13 16:57 35.459351 -120.223347 130 12479ft 131kts
17-Jun-13 16:58 35.431839 -120.185111 130 12706ft 163kts
17-Jun-13 16:59 35.400333 -120.140709 130 12955ft 177kts
17-Jun-13 17:00 35.367612 -120.094453 130 13257ft 182kts
17-Jun-13 17:01 35.334020 -120.046963 131 13566ft 185kts
17-Jun-13 17:02 35.300356 -119.999414 132 13943ft 182kts
17-Jun-13 17:03 35.267514 -119.953149 132 14348ft 178kts
17-Jun-13 17:04 35.235428 -119.907919 132 14757ft 174kts
17-Jun-13 17:05 35.204332 -119.863278 134 15142ft 170kts
17-Jun-13 17:06 35.173699 -119.819972 135 15522ft 166kts
17-Jun-13 17:07 35.148148 -119.784128 135 15619ft 178kts
17-Jun-13 17:08 35.114373 -119.736825 134 15593ft 187kts
17-Jun-13 17:09 35.074113 -119.680510 132 15591ft 190kts
17-Jun-13 17:10 35.039326 -119.631899 131 15589ft 189kts
17-Jun-13 17:11 35.010605 -119.591688 133 15581ft 188kts
17-Jun-13 17:12 34.976294 -119.543809 135 15567ft 185kts
17-Jun-13 17:13 34.943200 -119.497871 135 15551ft 174kts
17-Jun-13 17:14 34.912076 -119.454615 135 15548ft 166kts
17-Jun-13 17:15 34.881870 -119.412680 135 15549ft 163kts
17-Jun-13 17:16 34.851909 -119.371227 134 15534ft 166kts
17-Jun-13 17:17 34.820493 -119.327639 134 15561ft 174kts
17-Jun-13 17:18 34.788253 -119.283052 134 15562ft 177kts
17-Jun-13 17:19 34.755659 -119.238009 135 15555ft 176kts
17-Jun-13 17:20 34.724341 -119.194817 135 15546ft 165kts
17-Jun-13 17:21 34.693932 -119.152933 136 15543ft 166kts
17-Jun-13 17:22 34.663424 -119.110939 136 15541ft 162kts
17-Jun-13 17:23 34.635453 -119.072445 137 15540ft 143kts
17-Jun-13 17:24 34.609803 -119.037238 138 15542ft 136kts
17-Jun-13 17:25 34.584996 -119.003236 138 15548ft 133kts
17-Jun-13 17:26 34.560347 -118.969492 138 15546ft 133kts
17-Jun-13 17:27 34.535216 -118.935147 137 15344ft 148kts
17-Jun-13 17:28 34.504652 -118.893271 136 14469ft 181kts
17-Jun-13 17:29 34.470258 -118.845435 136 13521ft 187kts
17-Jun-13 17:30 34.439458 -118.803119 137 13549ft 154kts
17-Jun-13 17:31 34.434716 -118.744466 92 12313ft 197kts
17-Jun-13 17:32 34.435317 -118.676870 92 9881ft 210kts
17-Jun-13 17:33 34.435203 -118.608481 92 6894ft 201kts
17-Jun-13 17:34 34.434398 -118.546303 92 4990ft 141kts
17-Jun-13 17:35 34.421210 -118.518581 143 5033ft 92kts
17-Jun-13 17:36 34.397705 -118.508259 173 5030ft 101kts
17-Jun-13 17:37 34.366436 -118.505190 174 4490ft 137kts
17-Jun-13 17:38 34.339564 -118.502643 174 3865ft 129kts
17-Jun-13 17:39 34.305348 -118.499400 174 3070ft 123kts
17-Jun-13 17:40 34.276617 -118.496674 174 2387ft 150kts
17-Jun-13 17:41 34.242850 -118.493497 174 1527ft 145kts
17-Jun-13 17:42 34.216204 -118.490972 174 878ft 98kts
17-Jun-13 17:43 34.204131 -118.490549 214 764ft 17kts
17-Jun-13 17:44 34.197826 -118.491086 274 750ft 0kts
17-Jun-13 17:45 34.197826 -118.491086 274 750ft 0kts

Navigation Log

Ident Type
Flight plan parsing failed, navigation log unavailable